sensor_id;sensor_type;location;lat;lon;timestamp;pressure;altitude;pressure_sealevel;temperature;humidity
27334;BME280;14817;57.104;-2.094;2023-02-18T00:01:30;100336.22;;;5.15;100.00
27334;BME280;14817;57.104;-2.094;2023-02-18T00:03:58;100337.53;;;5.09;100.00
27334;BME280;14817;57.104;-2.094;2023-02-18T00:06:28;100340.09;;;5.10;100.00
27334;BME280;14817;57.104;-2.094;2023-02-18T00:08:56;100339.84;;;5.14;100.00
27334;BME280;14817;57.104;-2.094;2023-02-18T00:11:24;100332.13;;;5.10;100.00
27334;BME280;14817;57.104;-2.094;2023-02-18T00:13:53;100329.69;;;5.07;100.00
27334;BME280;14817;57.104;-2.094;2023-02-18T00:16:22;100326.81;;;4.99;100.00
27334;BME280;14817;57.104;-2.094;2023-02-18T00:18:49;100331.63;;;4.94;100.00
27334;BME280;14817;57.104;-2.094;2023-02-18T00:21:16;100326.91;;;4.86;100.00
27334;BME280;14817;57.104;-2.094;2023-02-18T00:23:43;100329.72;;;4.85;100.00
27334;BME280;14817;57.104;-2.094;2023-02-18T00:26:12;100321.25;;;4.80;100.00
27334;BME280;14817;57.104;-2.094;2023-02-18T00:28:40;100317.41;;;4.73;100.00
27334;BME280;14817;57.104;-2.094;2023-02-18T00:31:12;100313.91;;;4.72;100.00
27334;BME280;14817;57.104;-2.094;2023-02-18T00:33:40;100308.00;;;4.68;100.00
27334;BME280;14817;57.104;-2.094;2023-02-18T00:36:10;100309.19;;;4.76;100.00
27334;BME280;14817;57.104;-2.094;2023-02-18T00:38:38;100301.84;;;4.68;100.00
27334;BME280;14817;57.104;-2.094;2023-02-18T00:41:05;100306.28;;;4.45;100.00
27334;BME280;14817;57.104;-2.094;2023-02-18T00:43:32;100301.00;;;4.45;100.00
27334;BME280;14817;57.104;-2.094;2023-02-18T00:45:59;100293.41;;;4.52;100.00
27334;BME280;14817;57.104;-2.094;2023-02-18T00:48:27;100290.00;;;4.38;100.00
27334;BME280;14817;57.104;-2.094;2023-02-18T00:50:54;100287.47;;;4.37;100.00
27334;BME280;14817;57.104;-2.094;2023-02-18T00:53:21;100268.06;;;4.36;100.00
27334;BME280;14817;57.104;-2.094;2023-02-18T00:55:48;100255.91;;;4.34;100.00
27334;BME280;14817;57.104;-2.094;2023-02-18T00:58:15;100255.66;;;4.25;100.00
27334;BME280;14817;57.104;-2.094;2023-02-18T01:00:43;100266.25;;;4.25;100.00
27334;BME280;14817;57.104;-2.094;2023-02-18T01:03:11;100273.84;;;4.19;100.00
27334;BME280;14817;57.104;-2.094;2023-02-18T01:05:38;100279.00;;;4.20;100.00
27334;BME280;14817;57.104;-2.094;2023-02-18T01:08:07;100278.53;;;4.15;100.00
27334;BME280;14817;57.104;-2.094;2023-02-18T01:10:35;100270.22;;;4.20;100.00
27334;BME280;14817;57.104;-2.094;2023-02-18T01:13:03;100267.09;;;4.15;100.00
27334;BME280;14817;57.104;-2.094;2023-02-18T01:15:30;100262.63;;;4.15;100.00
27334;BME280;14817;57.104;-2.094;2023-02-18T01:17:57;100259.03;;;4.16;100.00
27334;BME280;14817;57.104;-2.094;2023-02-18T01:20:24;100251.81;;;4.18;100.00
27334;BME280;14817;57.104;-2.094;2023-02-18T01:22:51;100240.94;;;4.21;100.00
27334;BME280;14817;57.104;-2.094;2023-02-18T01:25:20;100229.72;;;4.18;100.00
27334;BME280;14817;57.104;-2.094;2023-02-18T01:27:47;100225.97;;;4.09;100.00
27334;BME280;14817;57.104;-2.094;2023-02-18T01:30:15;100233.22;;;4.07;100.00
27334;BME280;14817;57.104;-2.094;2023-02-18T01:32:44;100226.91;;;3.97;100.00
27334;BME280;14817;57.104;-2.094;2023-02-18T01:35:13;100223.31;;;3.98;100.00
27334;BME280;14817;57.104;-2.094;2023-02-18T01:37:40;100227.53;;;4.00;100.00
27334;BME280;14817;57.104;-2.094;2023-02-18T01:40:10;100224.28;;;3.97;100.00
27334;BME280;14817;57.104;-2.094;2023-02-18T01:42:38;100231.91;;;4.01;100.00
27334;BME280;14817;57.104;-2.094;2023-02-18T01:48:05;100233.47;;;4.04;100.00
27334;BME280;14817;57.104;-2.094;2023-02-18T01:50:41;100243.22;;;4.15;100.00
27334;BME280;14817;57.104;-2.094;2023-02-18T01:53:08;100239.47;;;4.06;100.00
27334;BME280;14817;57.104;-2.094;2023-02-18T01:55:37;100236.22;;;4.02;100.00
27334;BME280;14817;57.104;-2.094;2023-02-18T01:58:04;100229.34;;;4.00;100.00
27334;BME280;14817;57.104;-2.094;2023-02-18T02:00:32;100221.50;;;3.98;100.00
27334;BME280;14817;57.104;-2.094;2023-02-18T02:02:58;100210.56;;;4.03;100.00
27334;BME280;14817;57.104;-2.094;2023-02-18T02:05:30;100196.00;;;3.97;100.00
27334;BME280;14817;57.104;-2.094;2023-02-18T02:07:57;100192.38;;;3.98;100.00
27334;BME280;14817;57.104;-2.094;2023-02-18T02:10:42;100176.94;;;3.92;100.00
27334;BME280;14817;57.104;-2.094;2023-02-18T02:13:20;100156.94;;;3.88;100.00
27334;BME280;14817;57.104;-2.094;2023-02-18T02:16:04;100141.41;;;3.95;100.00
27334;BME280;14817;57.104;-2.094;2023-02-18T02:18:38;100136.13;;;3.95;100.00
27334;BME280;14817;57.104;-2.094;2023-02-18T02:26:59;100120.25;;;4.06;100.00
27334;BME280;14817;57.104;-2.094;2023-02-18T02:32:30;100100.38;;;4.00;100.00
27334;BME280;14817;57.104;-2.094;2023-02-18T02:35:12;100094.81;;;3.92;100.00
27334;BME280;14817;57.104;-2.094;2023-02-18T02:38:02;100107.72;;;3.85;100.00
27334;BME280;14817;57.104;-2.094;2023-02-18T02:41:01;100108.19;;;3.79;100.00
27334;BME280;14817;57.104;-2.094;2023-02-18T02:43:46;100097.94;;;3.75;100.00
27334;BME280;14817;57.104;-2.094;2023-02-18T02:46:30;100096.13;;;3.75;100.00
27334;BME280;14817;57.104;-2.094;2023-02-18T02:51:58;100087.09;;;3.66;100.00
27334;BME280;14817;57.104;-2.094;2023-02-18T02:54:27;100071.09;;;3.57;100.00
27334;BME280;14817;57.104;-2.094;2023-02-18T03:00:12;100066.06;;;3.65;100.00
27334;BME280;14817;57.104;-2.094;2023-02-18T03:05:22;100081.22;;;3.63;100.00
27334;BME280;14817;57.104;-2.094;2023-02-18T03:11:06;100047.38;;;3.66;100.00
27334;BME280;14817;57.104;-2.094;2023-02-18T03:16:08;100043.66;;;3.69;100.00
27334;BME280;14817;57.104;-2.094;2023-02-18T03:18:54;100035.22;;;3.64;100.00
27334;BME280;14817;57.104;-2.094;2023-02-18T03:21:34;100034.03;;;3.57;100.00
27334;BME280;14817;57.104;-2.094;2023-02-18T03:24:23;100054.13;;;3.59;100.00
27334;BME280;14817;57.104;-2.094;2023-02-18T03:26:59;100057.13;;;3.55;100.00
27334;BME280;14817;57.104;-2.094;2023-02-18T03:29:32;100049.56;;;3.61;100.00
27334;BME280;14817;57.104;-2.094;2023-02-18T03:32:04;100037.25;;;3.60;100.00
27334;BME280;14817;57.104;-2.094;2023-02-18T03:34:36;100035.72;;;3.58;100.00
27334;BME280;14817;57.104;-2.094;2023-02-18T03:37:06;100042.34;;;3.52;100.00
27334;BME280;14817;57.104;-2.094;2023-02-18T03:39:35;100038.47;;;3.56;100.00
27334;BME280;14817;57.104;-2.094;2023-02-18T03:42:03;100038.09;;;3.50;100.00
27334;BME280;14817;57.104;-2.094;2023-02-18T03:44:30;100033.06;;;3.46;100.00
27334;BME280;14817;57.104;-2.094;2023-02-18T03:46:58;100021.03;;;3.54;100.00
27334;BME280;14817;57.104;-2.094;2023-02-18T03:49:25;100013.69;;;3.57;100.00
27334;BME280;14817;57.104;-2.094;2023-02-18T03:51:52;100013.56;;;3.47;100.00
27334;BME280;14817;57.104;-2.094;2023-02-18T03:54:19;100017.53;;;3.53;100.00
27334;BME280;14817;57.104;-2.094;2023-02-18T03:56:46;100017.19;;;3.46;100.00
27334;BME280;14817;57.104;-2.094;2023-02-18T03:59:13;100031.50;;;3.55;100.00
27334;BME280;14817;57.104;-2.094;2023-02-18T04:01:39;100038.81;;;3.52;100.00
27334;BME280;14817;57.104;-2.094;2023-02-18T04:04:06;100031.34;;;3.45;100.00
27334;BME280;14817;57.104;-2.094;2023-02-18T04:06:33;100031.59;;;3.42;100.00
27334;BME280;14817;57.104;-2.094;2023-02-18T04:09:00;100019.00;;;3.46;100.00
27334;BME280;14817;57.104;-2.094;2023-02-18T04:11:28;100029.69;;;3.56;100.00
27334;BME280;14817;57.104;-2.094;2023-02-18T04:13:54;100019.13;;;3.67;100.00
27334;BME280;14817;57.104;-2.094;2023-02-18T04:16:21;100025.84;;;3.60;100.00
27334;BME280;14817;57.104;-2.094;2023-02-18T04:18:48;100036.06;;;3.42;100.00
27334;BME280;14817;57.104;-2.094;2023-02-18T04:21:15;100042.19;;;3.42;100.00
27334;BME280;14817;57.104;-2.094;2023-02-18T04:23:41;100054.34;;;3.56;100.00
27334;BME280;14817;57.104;-2.094;2023-02-18T04:26:08;100061.09;;;3.49;100.00
27334;BME280;14817;57.104;-2.094;2023-02-18T04:28:35;100062.28;;;3.56;100.00
27334;BME280;14817;57.104;-2.094;2023-02-18T04:31:02;100052.06;;;3.52;100.00
27334;BME280;14817;57.104;-2.094;2023-02-18T04:33:29;100049.78;;;3.47;100.00
27334;BME280;14817;57.104;-2.094;2023-02-18T04:35:56;100052.31;;;3.48;100.00
27334;BME280;14817;57.104;-2.094;2023-02-18T04:38:22;100052.06;;;3.52;100.00
27334;BME280;14817;57.104;-2.094;2023-02-18T04:40:49;100052.69;;;3.44;100.00
27334;BME280;14817;57.104;-2.094;2023-02-18T04:43:16;100056.25;;;3.43;100.00
27334;BME280;14817;57.104;-2.094;2023-02-18T04:45:43;100044.13;;;3.40;100.00
27334;BME280;14817;57.104;-2.094;2023-02-18T04:48:10;100043.19;;;3.53;100.00
27334;BME280;14817;57.104;-2.094;2023-02-18T04:50:36;100049.88;;;3.45;100.00
27334;BME280;14817;57.104;-2.094;2023-02-18T04:53:03;100047.38;;;3.55;100.00
27334;BME280;14817;57.104;-2.094;2023-02-18T04:55:30;100034.66;;;3.72;100.00
27334;BME280;14817;57.104;-2.094;2023-02-18T04:57:56;100037.03;;;3.75;100.00
27334;BME280;14817;57.104;-2.094;2023-02-18T05:00:23;100047.84;;;3.60;100.00
27334;BME280;14817;57.104;-2.094;2023-02-18T05:02:50;100054.22;;;3.46;100.00
27334;BME280;14817;57.104;-2.094;2023-02-18T05:05:17;100050.25;;;3.41;100.00
27334;BME280;14817;57.104;-2.094;2023-02-18T05:07:44;100047.75;;;3.39;100.00
27334;BME280;14817;57.104;-2.094;2023-02-18T05:10:16;100037.16;;;3.51;100.00
27334;BME280;14817;57.104;-2.094;2023-02-18T05:12:44;100038.81;;;3.40;100.00
27334;BME280;14817;57.104;-2.094;2023-02-18T05:15:11;100042.69;;;3.59;100.00
27334;BME280;14817;57.104;-2.094;2023-02-18T05:17:38;100032.34;;;3.56;100.00
27334;BME280;14817;57.104;-2.094;2023-02-18T05:20:05;100037.25;;;3.60;100.00
27334;BME280;14817;57.104;-2.094;2023-02-18T05:22:35;100038.84;;;3.63;100.00
27334;BME280;14817;57.104;-2.094;2023-02-18T05:25:02;100054.84;;;3.50;100.00
27334;BME280;14817;57.104;-2.094;2023-02-18T05:27:29;100057.34;;;3.52;100.00
27334;BME280;14817;57.104;-2.094;2023-02-18T05:29:56;100065.81;;;3.57;100.00
27334;BME280;14817;57.104;-2.094;2023-02-18T05:32:23;100065.28;;;3.52;100.00
27334;BME280;14817;57.104;-2.094;2023-02-18T05:34:50;100075.78;;;3.42;100.00
27334;BME280;14817;57.104;-2.094;2023-02-18T05:37:17;100070.69;;;3.39;100.00
27334;BME280;14817;57.104;-2.094;2023-02-18T05:39:44;100076.72;;;3.41;100.00
27334;BME280;14817;57.104;-2.094;2023-02-18T05:42:11;100082.72;;;3.32;100.00
27334;BME280;14817;57.104;-2.094;2023-02-18T05:44:38;100084.28;;;3.34;100.00
27334;BME280;14817;57.104;-2.094;2023-02-18T05:47:07;100090.81;;;3.53;100.00
27334;BME280;14817;57.104;-2.094;2023-02-18T05:49:37;100082.78;;;3.54;100.00
27334;BME280;14817;57.104;-2.094;2023-02-18T05:52:05;100091.78;;;3.52;100.00
27334;BME280;14817;57.104;-2.094;2023-02-18T05:54:32;100096.34;;;3.50;100.00
27334;BME280;14817;57.104;-2.094;2023-02-18T05:56:59;100111.75;;;3.44;100.00
27334;BME280;14817;57.104;-2.094;2023-02-18T05:59:26;100116.16;;;3.33;100.00
27334;BME280;14817;57.104;-2.094;2023-02-18T06:01:53;100113.28;;;3.36;100.00
27334;BME280;14817;57.104;-2.094;2023-02-18T06:04:20;100115.56;;;3.29;100.00
27334;BME280;14817;57.104;-2.094;2023-02-18T06:06:47;100121.69;;;3.30;100.00
27334;BME280;14817;57.104;-2.094;2023-02-18T06:09:14;100121.19;;;3.24;100.00
27334;BME280;14817;57.104;-2.094;2023-02-18T06:11:42;100124.97;;;3.33;100.00
27334;BME280;14817;57.104;-2.094;2023-02-18T06:14:08;100123.34;;;3.19;100.00
27334;BME280;14817;57.104;-2.094;2023-02-18T06:16:35;100133.50;;;3.01;100.00
27334;BME280;14817;57.104;-2.094;2023-02-18T06:19:04;100138.78;;;3.01;100.00
27334;BME280;14817;57.104;-2.094;2023-02-18T06:21:31;100137.22;;;2.99;100.00
27334;BME280;14817;57.104;-2.094;2023-02-18T06:23:57;100130.88;;;3.13;100.00
27334;BME280;14817;57.104;-2.094;2023-02-18T06:26:25;100131.34;;;3.06;100.00
27334;BME280;14817;57.104;-2.094;2023-02-18T06:28:52;100130.56;;;2.93;100.00
27334;BME280;14817;57.104;-2.094;2023-02-18T06:31:19;100130.69;;;2.92;100.00
27334;BME280;14817;57.104;-2.094;2023-02-18T06:33:46;100138.66;;;2.79;100.00
27334;BME280;14817;57.104;-2.094;2023-02-18T06:36:13;100136.75;;;2.81;100.00
27334;BME280;14817;57.104;-2.094;2023-02-18T06:38:42;100136.25;;;2.76;100.00
27334;BME280;14817;57.104;-2.094;2023-02-18T06:41:11;100138.50;;;2.69;100.00
27334;BME280;14817;57.104;-2.094;2023-02-18T06:43:39;100145.91;;;2.64;100.00
27334;BME280;14817;57.104;-2.094;2023-02-18T06:46:06;100153.78;;;2.53;100.00
27334;BME280;14817;57.104;-2.094;2023-02-18T06:48:33;100166.25;;;2.51;100.00
27334;BME280;14817;57.104;-2.094;2023-02-18T06:51:00;100167.53;;;2.45;100.00
27334;BME280;14817;57.104;-2.094;2023-02-18T06:53:27;100164.53;;;2.50;100.00
27334;BME280;14817;57.104;-2.094;2023-02-18T06:55:54;100169.75;;;2.38;100.00
27334;BME280;14817;57.104;-2.094;2023-02-18T06:58:20;100177.25;;;2.44;100.00
27334;BME280;14817;57.104;-2.094;2023-02-18T07:00:48;100170.16;;;2.45;100.00
27334;BME280;14817;57.104;-2.094;2023-02-18T07:03:15;100196.50;;;2.34;100.00
27334;BME280;14817;57.104;-2.094;2023-02-18T07:05:42;100201.81;;;2.34;100.00
27334;BME280;14817;57.104;-2.094;2023-02-18T07:08:09;100204.75;;;2.42;100.00
27334;BME280;14817;57.104;-2.094;2023-02-18T07:10:36;100209.31;;;2.14;100.00
27334;BME280;14817;57.104;-2.094;2023-02-18T07:13:03;100211.66;;;2.06;100.00
27334;BME280;14817;57.104;-2.094;2023-02-18T07:15:31;100214.94;;;2.10;100.00
27334;BME280;14817;57.104;-2.094;2023-02-18T07:17:58;100215.97;;;1.94;100.00
27334;BME280;14817;57.104;-2.094;2023-02-18T07:20:25;100212.69;;;1.91;100.00
27334;BME280;14817;57.104;-2.094;2023-02-18T07:22:53;100213.53;;;1.91;100.00
27334;BME280;14817;57.104;-2.094;2023-02-18T07:25:20;100206.69;;;1.89;100.00
27334;BME280;14817;57.104;-2.094;2023-02-18T07:27:49;100214.06;;;1.83;100.00
27334;BME280;14817;57.104;-2.094;2023-02-18T07:30:18;100229.16;;;1.69;100.00
27334;BME280;14817;57.104;-2.094;2023-02-18T07:32:45;100228.50;;;1.65;100.00
27334;BME280;14817;57.104;-2.094;2023-02-18T07:35:15;100230.19;;;1.66;100.00
27334;BME280;14817;57.104;-2.094;2023-02-18T07:37:46;100225.25;;;1.74;100.00
27334;BME280;14817;57.104;-2.094;2023-02-18T07:40:16;100247.72;;;1.67;100.00
27334;BME280;14817;57.104;-2.094;2023-02-18T07:42:43;100266.81;;;1.71;100.00
27334;BME280;14817;57.104;-2.094;2023-02-18T07:45:11;100271.81;;;1.75;100.00
27334;BME280;14817;57.104;-2.094;2023-02-18T07:47:38;100263.50;;;1.81;100.00
27334;BME280;14817;57.104;-2.094;2023-02-18T07:50:06;100267.81;;;1.82;100.00
27334;BME280;14817;57.104;-2.094;2023-02-18T07:52:33;100274.16;;;1.80;100.00
27334;BME280;14817;57.104;-2.094;2023-02-18T07:55:00;100275.75;;;1.95;100.00
27334;BME280;14817;57.104;-2.094;2023-02-18T07:57:27;100270.88;;;1.89;100.00
27334;BME280;14817;57.104;-2.094;2023-02-18T07:59:53;100278.00;;;2.01;100.00
27334;BME280;14817;57.104;-2.094;2023-02-18T08:02:22;100276.63;;;2.09;100.00
27334;BME280;14817;57.104;-2.094;2023-02-18T08:04:50;100280.41;;;2.04;100.00
27334;BME280;14817;57.104;-2.094;2023-02-18T08:07:18;100287.41;;;2.18;100.00
27334;BME280;14817;57.104;-2.094;2023-02-18T08:09:47;100292.47;;;2.21;100.00
27334;BME280;14817;57.104;-2.094;2023-02-18T08:12:16;100287.41;;;2.18;100.00
27334;BME280;14817;57.104;-2.094;2023-02-18T08:14:43;100307.41;;;2.22;100.00
27334;BME280;14817;57.104;-2.094;2023-02-18T08:17:09;100305.28;;;2.40;100.00
27334;BME280;14817;57.104;-2.094;2023-02-18T08:19:36;100309.50;;;2.56;100.00
27334;BME280;14817;57.104;-2.094;2023-02-18T08:22:03;100314.03;;;2.41;100.00
27334;BME280;14817;57.104;-2.094;2023-02-18T08:24:30;100315.44;;;2.47;100.00
27334;BME280;14817;57.104;-2.094;2023-02-18T08:26:56;100310.16;;;3.09;100.00
27334;BME280;14817;57.104;-2.094;2023-02-18T08:29:27;100313.44;;;4.09;100.00
27334;BME280;14817;57.104;-2.094;2023-02-18T08:31:54;100305.09;;;5.17;100.00
27334;BME280;14817;57.104;-2.094;2023-02-18T08:34:24;100322.19;;;4.34;100.00
27334;BME280;14817;57.104;-2.094;2023-02-18T08:36:51;100327.81;;;3.82;100.00
27334;BME280;14817;57.104;-2.094;2023-02-18T08:39:17;100338.63;;;3.55;100.00
27334;BME280;14817;57.104;-2.094;2023-02-18T08:41:44;100341.00;;;3.34;100.00
27334;BME280;14817;57.104;-2.094;2023-02-18T08:44:11;100339.28;;;3.46;100.00
27334;BME280;14817;57.104;-2.094;2023-02-18T08:46:38;100348.38;;;3.55;100.00
27334;BME280;14817;57.104;-2.094;2023-02-18T08:49:05;100340.03;;;3.72;100.00
27334;BME280;14817;57.104;-2.094;2023-02-18T08:51:32;100342.97;;;3.80;100.00
27334;BME280;14817;57.104;-2.094;2023-02-18T08:53:59;100348.69;;;4.34;100.00
27334;BME280;14817;57.104;-2.094;2023-02-18T08:56:27;100352.25;;;4.10;100.00
27334;BME280;14817;57.104;-2.094;2023-02-18T08:58:58;100351.44;;;3.97;100.00
27334;BME280;14817;57.104;-2.094;2023-02-18T09:01:25;100354.25;;;4.06;100.00
27334;BME280;14817;57.104;-2.094;2023-02-18T09:03:52;100362.78;;;3.99;100.00
27334;BME280;14817;57.104;-2.094;2023-02-18T09:06:19;100363.00;;;3.96;100.00
27334;BME280;14817;57.104;-2.094;2023-02-18T09:08:45;100375.88;;;3.65;100.00
27334;BME280;14817;57.104;-2.094;2023-02-18T09:11:12;100377.88;;;3.61;100.00
27334;BME280;14817;57.104;-2.094;2023-02-18T09:13:40;100388.16;;;3.66;100.00
27334;BME280;14817;57.104;-2.094;2023-02-18T09:16:10;100394.84;;;3.59;100.00
27334;BME280;14817;57.104;-2.094;2023-02-18T09:18:37;100404.03;;;3.66;100.00
27334;BME280;14817;57.104;-2.094;2023-02-18T09:21:06;100403.22;;;3.53;100.00
27334;BME280;14817;57.104;-2.094;2023-02-18T09:23:35;100412.34;;;3.48;100.00
27334;BME280;14817;57.104;-2.094;2023-02-18T09:26:09;100408.59;;;3.64;100.00
27334;BME280;14817;57.104;-2.094;2023-02-18T09:28:36;100408.78;;;3.98;100.00
27334;BME280;14817;57.104;-2.094;2023-02-18T09:31:11;100412.13;;;4.13;100.00
27334;BME280;14817;57.104;-2.094;2023-02-18T09:33:41;100417.88;;;3.82;100.00
27334;BME280;14817;57.104;-2.094;2023-02-18T09:36:11;100424.50;;;3.88;100.00
27334;BME280;14817;57.104;-2.094;2023-02-18T09:38:39;100423.94;;;4.44;100.00
27334;BME280;14817;57.104;-2.094;2023-02-18T09:41:29;100421.03;;;5.39;100.00
27334;BME280;14817;57.104;-2.094;2023-02-18T09:44:04;100434.19;;;5.29;100.00
27334;BME280;14817;57.104;-2.094;2023-02-18T09:46:35;100430.53;;;5.75;100.00
27334;BME280;14817;57.104;-2.094;2023-02-18T09:49:06;100432.03;;;6.11;100.00
27334;BME280;14817;57.104;-2.094;2023-02-18T09:51:37;100437.25;;;6.66;100.00
27334;BME280;14817;57.104;-2.094;2023-02-18T09:54:04;100452.53;;;6.21;100.00
27334;BME280;14817;57.104;-2.094;2023-02-18T09:56:32;100453.75;;;6.81;100.00
27334;BME280;14817;57.104;-2.094;2023-02-18T09:59:03;100462.38;;;6.94;100.00
27334;BME280;14817;57.104;-2.094;2023-02-18T10:01:39;100462.91;;;6.88;100.00
27334;BME280;14817;57.104;-2.094;2023-02-18T10:04:32;100474.72;;;6.74;100.00
27334;BME280;14817;57.104;-2.094;2023-02-18T10:07:01;100470.63;;;6.70;100.00
27334;BME280;14817;57.104;-2.094;2023-02-18T10:09:38;100470.75;;;6.37;100.00
27334;BME280;14817;57.104;-2.094;2023-02-18T10:12:14;100474.97;;;6.39;100.00
27334;BME280;14817;57.104;-2.094;2023-02-18T10:14:44;100481.81;;;7.06;100.00
27334;BME280;14817;57.104;-2.094;2023-02-18T10:17:15;100478.94;;;6.98;100.00
27334;BME280;14817;57.104;-2.094;2023-02-18T10:19:45;100480.66;;;7.30;100.00
27334;BME280;14817;57.104;-2.094;2023-02-18T10:22:14;100483.47;;;7.07;100.00
27334;BME280;14817;57.104;-2.094;2023-02-18T10:27:09;100482.91;;;7.96;100.00
27334;BME280;14817;57.104;-2.094;2023-02-18T10:29:39;100486.75;;;7.42;100.00
27334;BME280;14817;57.104;-2.094;2023-02-18T10:34:41;100479.91;;;7.89;100.00
27334;BME280;14817;57.104;-2.094;2023-02-18T10:40:15;100483.00;;;7.23;100.00
27334;BME280;14817;57.104;-2.094;2023-02-18T10:48:52;100512.44;;;7.22;100.00
27334;BME280;14817;57.104;-2.094;2023-02-18T10:50:58;100517.63;;;7.23;100.00
27334;BME280;14817;57.104;-2.094;2023-02-18T10:53:34;100515.75;;;7.35;100.00
27334;BME280;14817;57.104;-2.094;2023-02-18T10:56:02;100519.41;;;7.65;100.00
27334;BME280;14817;57.104;-2.094;2023-02-18T10:58:49;100516.72;;;7.65;100.00
27334;BME280;14817;57.104;-2.094;2023-02-18T11:01:18;100514.06;;;7.13;100.00
27334;BME280;14817;57.104;-2.094;2023-02-18T11:03:48;100516.44;;;7.58;100.00
27334;BME280;14817;57.104;-2.094;2023-02-18T11:08:52;100510.16;;;7.69;100.00
27334;BME280;14817;57.104;-2.094;2023-02-18T11:11:23;100514.84;;;7.25;100.00
27334;BME280;14817;57.104;-2.094;2023-02-18T11:13:59;100509.69;;;7.33;100.00
27334;BME280;14817;57.104;-2.094;2023-02-18T11:16:37;100500.97;;;7.00;100.00
27334;BME280;14817;57.104;-2.094;2023-02-18T11:19:05;100505.22;;;7.12;100.00
27334;BME280;14817;57.104;-2.094;2023-02-18T11:22:06;100509.41;;;7.36;100.00
27334;BME280;14817;57.104;-2.094;2023-02-18T11:24:37;100510.22;;;7.06;100.00
27334;BME280;14817;57.104;-2.094;2023-02-18T11:27:09;100503.72;;;6.78;100.00
27334;BME280;14817;57.104;-2.094;2023-02-18T11:29:39;100494.91;;;6.98;100.00
27334;BME280;14817;57.104;-2.094;2023-02-18T11:32:10;100501.19;;;6.97;100.00
27334;BME280;14817;57.104;-2.094;2023-02-18T11:34:41;100502.94;;;6.87;100.00
27334;BME280;14817;57.104;-2.094;2023-02-18T11:37:12;100505.69;;;7.48;100.00
27334;BME280;14817;57.104;-2.094;2023-02-18T11:39:44;100502.50;;;7.24;100.00
27334;BME280;14817;57.104;-2.094;2023-02-18T11:42:14;100507.56;;;7.27;100.00
27334;BME280;14817;57.104;-2.094;2023-02-18T11:44:54;100505.28;;;7.43;100.00
27334;BME280;14817;57.104;-2.094;2023-02-18T11:52:37;100507.66;;;7.46;100.00
27334;BME280;14817;57.104;-2.094;2023-02-18T11:55:11;100511.72;;;7.41;100.00
27334;BME280;14817;57.104;-2.094;2023-02-18T11:57:43;100511.66;;;7.62;100.00
27334;BME280;14817;57.104;-2.094;2023-02-18T12:00:19;100522.69;;;7.47;100.00
27334;BME280;14817;57.104;-2.094;2023-02-18T12:02:47;100510.94;;;7.29;100.00
27334;BME280;14817;57.104;-2.094;2023-02-18T12:05:23;100510.75;;;7.21;100.00
27334;BME280;14817;57.104;-2.094;2023-02-18T12:08:10;100515.16;;;7.10;100.00
27334;BME280;14817;57.104;-2.094;2023-02-18T12:10:47;100513.22;;;6.70;100.00
27334;BME280;14817;57.104;-2.094;2023-02-18T12:18:43;100522.69;;;7.26;100.00
27334;BME280;14817;57.104;-2.094;2023-02-18T12:24:32;100527.09;;;7.37;100.00
27334;BME280;14817;57.104;-2.094;2023-02-18T12:27:30;100530.06;;;7.34;100.00
27334;BME280;14817;57.104;-2.094;2023-02-18T12:35:40;100528.47;;;7.31;100.00
27334;BME280;14817;57.104;-2.094;2023-02-18T12:44:13;100523.22;;;6.99;100.00
27334;BME280;14817;57.104;-2.094;2023-02-18T12:52:01;100522.88;;;6.92;100.00
27334;BME280;14817;57.104;-2.094;2023-02-18T13:02:57;100528.63;;;6.56;100.00
27334;BME280;14817;57.104;-2.094;2023-02-18T13:13:48;100535.84;;;6.65;100.00
27334;BME280;14817;57.104;-2.094;2023-02-18T13:16:18;100527.63;;;6.57;100.00
27334;BME280;14817;57.104;-2.094;2023-02-18T13:18:57;100524.41;;;6.42;100.00
27334;BME280;14817;57.104;-2.094;2023-02-18T13:21:26;100532.75;;;6.48;100.00
27334;BME280;14817;57.104;-2.094;2023-02-18T13:26:23;100534.31;;;6.51;100.00
27334;BME280;14817;57.104;-2.094;2023-02-18T13:31:59;100532.41;;;6.42;100.00
27334;BME280;14817;57.104;-2.094;2023-02-18T13:39:56;100536.72;;;6.54;100.00
27334;BME280;14817;57.104;-2.094;2023-02-18T13:52:48;100533.41;;;6.29;100.00
27334;BME280;14817;57.104;-2.094;2023-02-18T13:55:26;100539.44;;;6.43;100.00
27334;BME280;14817;57.104;-2.094;2023-02-18T13:58:00;100531.94;;;6.37;100.00
27334;BME280;14817;57.104;-2.094;2023-02-18T14:00:35;100551.88;;;6.42;100.00
27334;BME280;14817;57.104;-2.094;2023-02-18T14:06:27;100543.75;;;6.44;100.00
27334;BME280;14817;57.104;-2.094;2023-02-18T14:11:56;100543.47;;;6.58;100.00
27334;BME280;14817;57.104;-2.094;2023-02-18T14:14:39;100548.47;;;6.51;100.00
27334;BME280;14817;57.104;-2.094;2023-02-18T14:22:45;100554.16;;;6.47;100.00
27334;BME280;14817;57.104;-2.094;2023-02-18T14:27:40;100558.53;;;6.37;100.00
27334;BME280;14817;57.104;-2.094;2023-02-18T14:30:15;100558.38;;;6.49;100.00
27334;BME280;14817;57.104;-2.094;2023-02-18T14:32:44;100558.28;;;6.51;100.00
27334;BME280;14817;57.104;-2.094;2023-02-18T14:36:17;100556.09;;;6.45;100.00
27334;BME280;14817;57.104;-2.094;2023-02-18T14:41:05;100552.22;;;6.49;100.00
27334;BME280;14817;57.104;-2.094;2023-02-18T14:47:05;100550.69;;;6.35;100.00
27334;BME280;14817;57.104;-2.094;2023-02-18T14:49:41;100549.69;;;6.47;100.00
27334;BME280;14817;57.104;-2.094;2023-02-18T14:52:26;100542.81;;;6.33;100.00
27334;BME280;14817;57.104;-2.094;2023-02-18T14:54:55;100543.78;;;6.32;100.00
27334;BME280;14817;57.104;-2.094;2023-02-18T14:57:53;100547.06;;;6.36;100.00
27334;BME280;14817;57.104;-2.094;2023-02-18T15:00:23;100547.78;;;6.27;100.00
27334;BME280;14817;57.104;-2.094;2023-02-18T15:02:52;100543.22;;;6.18;100.00
27334;BME280;14817;57.104;-2.094;2023-02-18T15:05:26;100538.50;;;6.21;100.00
27334;BME280;14817;57.104;-2.094;2023-02-18T15:08:05;100531.50;;;6.09;100.00